Bay City, Oregon
Current Conditions -  °F | °C
As of 10:35 AM on Saturday 25 Oct 2014 (Local Time) from KTMK Reporting Station
Overcast Overcast  
Wind Chill: 63°   Ceiling: 7000
Heat Index: 63°   Visibility: 10mi
Dew Point: 48°   Wind: 22mph
Humidity: 59%   Direction: 130°SE
Pressure: 29.32"   Gusts: 37mph
Location:  45.52°N, 123.89°W
Report Text: KTMK 251735Z AUTO 13019G32KT 10SM BKN070 BKN080 OVC090 17/09 A2932 RMK AO2
Loading
Personal Weather Stations






























Interactive Weather Map
Tropical Storm Tracking
New forecast layout! Learn more

10-Day Weather Forecast

Advertisements
Track Severe Weather on mobile